Etusivu
METAR-TAF:

METAR-TAF

Lentoasemat :

Vidsel, Ruotsi

Leveyspiiri: 65-52N, Pituuspiiri: 020-08E, korkeus merenpinnasta: 180 m

Tämänhetkinen sää

Tämä raportti tehtiin 16 minuuttia sitten, kello 18.20 UTC
Tuuli 5 kn kaakosta
Lämpötila 9°C
Kosteus 93%
Ilmanpaine 1029 hPa
Näkyvyys 10 km tai enemmän

METAR: ESPE 221820Z AUTO 14005KT 9999 BKN037/// 09/08 Q1029

Aika: 20:36 (18:36 UTC)

Sääennuste

Tämä raportti tehtiin 9 tuntia ja 55 minuuttia sitten, kello 08.41 UTC
Ennuste voimassa 22. päivästä klo 09 UTC - 22. päivään klo 16 UTC
Tuuli 6 kn etelästä
Näkyvyys 10 km tai enemmän
Hajonneita pilviä 2300 ft:n korkeudessa
Ajoittain
22. päivästä klo 10 UTC - 22. päivään klo 16 UTC
Hajanaisia pilviä 1500 ft:n korkeudessa
Hajanaisia pilviä 2500 ft:n korkeudessa

TAF: ESPE 220841Z 2209/2216 17006KT 9999 BKN023 TEMPO 2210/2216 SCT015 SCT025 RMK MIL

Säähavainnot ja -ennusteet yli 4000 lentoasemalta (METAR- ja TAF-raportit).

Käytössä olevat sääasemat on merkitty karttaan keltaisilla ja punaisilla pisteillä.

Aseta hiiri pisteen päälle nähdäksesi sääaseman nimen.

Klikkaa sitten nähdäksesi säähavainnot ja -ennusteet.

Kartan vaihtaminen: klikkaa mustalla rastilla varustettuja vihreitä pisteitä, niin voit zoomata sisään; viivalla varustettua vihreää pistettä, niin voit zoomata ulos tai vihreitä nuolia, niin pääset viereisille kartoille.


METAR-TAF: